Timmins/Victor M. Power
CYTS : now visible

Airfield :











YOU CAN JOIN US ON...

 
LOGIN :

Register | Disclaimer

   EN    FR    IT 

 









Legend :    VFR   Marginal VFR   IFR   Intensive IFR   Very Intensive IFR
Visi :
Ceiling :
>= 8 km
>= 3000ft
5 to 8 km
1000 to 3000 ft
1500m to 5 km
500 to 1000 ft
800 to 1500m
200 to 500 ft
< 800m
< 200 ft
Symbols :   Thunderstorms  Fog  Heavy snow  Heavy precipitations  Wind > 20 kt






- Airport Elevation : 967 ft
- IATA code : YTS


CYTS - Timmins/Victor M. Power

CURRENT METAR :
  • 281400Z 35009KT 3SM -SN SCT005 OVC012 M13/M15 A3002 RMK SF4SC4 SLP190

EXPIRED METARs :
  • 281300Z 30006KT 3SM -SN SCT005 OVC015 M13/M13 A2999 RMK ST4SC4 ICE ON INDICATOR SLP182
  • 281225Z 33007KT 3SM -FZDZ -SN BKN005 OVC012 M12/M13 A2998 RMK ST5SC3 SLP177
  • 281211Z 31005KT 6SM -FZDZ -SN BKN005 OVC014 M12/M12 A2998 RMK ST6SC2 ICE ON INDICATOR SLP177
  • 281200Z 29006KT 6SM -SN BKN004 OVC010 M12/M12 A2998 RMK SF7SC1 ICE ON INDICATOR SLP178
  • 281140Z 30005KT 5SM -SN OVC003 M11/M12 A2997 RMK SC8 SLP175

TAF TAF CYTS
Valid from the 28 at 14:00 until the 29 at 02:00 UTC


281341Z 2814/2902 30006KT P6SM SCT005 OVC012
TEMPO 2814/2815 3SM -SN -FZDZ BR BKN005 OVC012
FM281500 33008KT P6SM SCT008 BKN015
TEMPO 2815/2818 5SM -SN -FZDZ BKN008 OVC015
FM281800 33008KT P6SM BKN020
TEMPO 2818/2822 BKN025
FM282200 34008KT P6SM SCT020
TEMPO 2822/2902 BKN020 RMK NXT FCST BY 282000Z



MET'MAP, your aeronautical weather chart ! - Copyright ORBIFLY December 2007 - Disclaimer

ORBIFLY MET'MAP TEAM :

Programming & Development : Alexandra Zaïnal
Concept & original design : Baudouin d'Aumeries
Assistance for programming : Marc-Olivier Méhu
Technical & hardware support : Manuel Goepfert

Contact : metmap@orbifly.com




SOURCES & CREDITS :

   NOAA       Earth
Advisory